Aérodrome :
LOGIN :

S'inscrire | Disclaimer

   EN    FR    IT 

 










Légende :    VFR   VFR Marginal   IFR   IFR Intensif   IFR Très Intensif
Visi : 
Plafond : 
>= 8 km
>= 3000ft
5 à 8 km
1000 à 3000 ft
1500m à 5 km
500 à 1000 ft
800 à 1500m
200 à 500 ft
< 800m
< 200 ft
Symboles :   Orages  Brouillard  Fortes neiges  Fortes précipitations  Vent > 20 kt
SIGMETs :   Divers  Orages  Givrage  Turbulence  Onde Orograph.  Cendres Volcan.







- Altitude de l'aérodrome : 306 ft
- Code IATA : EMA
- Voir les cartes d'approche


EGNX - Nottingham East Midlands

DERNIER METAR :
  • 230050Z 23007KT CAVOK 17/15 Q1020

METARs EXPIRÉS :
  • 230020Z 22006KT CAVOK 18/15 Q1020
  • 222350Z 23006KT CAVOK 17/15 Q1021
  • 222320Z 23006KT CAVOK 18/15 Q1021
  • 222250Z 22004KT CAVOK 19/15 Q1021
  • 222220Z 23004KT CAVOK 19/15 Q1021

TAF TAF EGNX
Valide du 23 à 00h jusqu'au 24 à 00h UTC


222258Z 2300/2324 21004KT 9999 FEW035
PROB40 2302/2307 6000
BECMG 2312/2315 15010KT
PROB40
TEMPO 2319/2324 14015G27KT 3000 +SHRAGR TSRA
ATIS : +44 1332 852 852 (ext 3201)
Pas de NOTAMs connus pour ce terrain.



MET'MAP, la Météo Aéronautique d'un coup d'oeil ! - Copyright ORBIFLY Décembre 2007 - Disclaimer

ORBIFLY MET'MAP TEAM :

Programmation & Développement : Alexandra Zaïnal
Conception & Développement : Baudouin d'Aumeries
Co-Programmation & Développement : Marc-Olivier Méhu
Soutien technique & logistique : Manuel Goepfert

Contact : metmap@orbifly.com




SOURCES & CREDITS :

   NOAA